createdAt,value
2018-08-12T00:00:42.625Z,1.80
2018-08-12T00:03:13.860Z,1.45
2018-08-12T00:05:44.400Z,1.87
2018-08-12T00:08:15.198Z,1.57
2018-08-12T00:10:47.159Z,1.80
2018-08-12T00:13:18.227Z,1.52
2018-08-12T00:15:48.584Z,1.60
2018-08-12T00:18:20.418Z,1.70
2018-08-12T00:20:49.852Z,1.32
2018-08-12T00:23:19.763Z,1.57
2018-08-12T00:25:49.684Z,2.07
2018-08-12T00:28:19.462Z,1.53
2018-08-12T00:30:52.169Z,1.70
2018-08-12T00:33:22.893Z,1.53
2018-08-12T00:35:54.991Z,1.80
2018-08-12T00:38:26.912Z,1.77
2018-08-12T00:40:58.443Z,2.10
2018-08-12T00:43:29.672Z,1.50
2018-08-12T00:46:03.165Z,1.57
2018-08-12T00:48:34.142Z,1.73
2018-08-12T00:51:05.727Z,1.60
2018-08-12T00:53:35.769Z,1.40
2018-08-12T00:56:06.194Z,1.70
2018-08-12T00:58:36.211Z,1.80
2018-08-12T01:01:07.824Z,1.90
2018-08-12T01:03:37.223Z,1.50
2018-08-12T01:06:06.634Z,1.70
2018-08-12T01:08:37.252Z,1.70
2018-08-12T01:11:08.880Z,1.77
2018-08-12T01:13:39.624Z,1.80
2018-08-12T01:16:09.731Z,1.65
2018-08-12T01:18:43.064Z,1.40
2018-08-12T01:21:12.559Z,1.90
2018-08-12T01:23:43.453Z,1.62
2018-08-12T01:26:13.201Z,1.57
2018-08-12T01:28:43.686Z,2.00
2018-08-12T01:31:14.965Z,1.47
2018-08-12T01:33:46.362Z,1.40
2018-08-12T01:36:15.642Z,1.50
2018-08-12T01:38:45.770Z,1.60
2018-08-12T01:41:19.421Z,1.60
2018-08-12T01:43:49.868Z,1.40
2018-08-12T01:46:20.645Z,1.67
2018-08-12T01:48:51.335Z,1.40
2018-08-12T01:51:23.053Z,1.40
2018-08-12T01:53:52.197Z,1.83
2018-08-12T01:56:21.346Z,1.60
2018-08-12T01:58:50.440Z,1.70
2018-08-12T02:01:22.671Z,1.50
2018-08-12T02:03:52.749Z,1.52
2018-08-12T02:06:23.569Z,1.83
2018-08-12T02:08:54.131Z,1.55
2018-08-12T02:11:24.554Z,1.60
2018-08-12T02:13:56.070Z,1.80
2018-08-12T02:16:26.850Z,1.70
2018-08-12T02:18:58.773Z,2.00
2018-08-12T02:21:28.829Z,1.80
2018-08-12T02:23:58.067Z,1.77
2018-08-12T02:26:32.889Z,2.10
2018-08-12T02:29:02.024Z,1.90
2018-08-12T02:31:31.096Z,1.77
2018-08-12T02:34:02.827Z,1.60
2018-08-12T02:36:35.130Z,1.60
2018-08-12T02:39:07.262Z,2.00
2018-08-12T02:41:38.012Z,1.70
2018-08-12T02:44:08.320Z,1.60
2018-08-12T02:46:39.091Z,2.00
2018-08-12T02:49:09.323Z,1.83
2018-08-12T02:51:39.340Z,1.77
2018-08-12T02:54:10.021Z,2.13
2018-08-12T02:56:39.209Z,1.50
2018-08-12T02:59:11.209Z,1.95
2018-08-12T03:01:41.229Z,1.57
2018-08-12T03:04:11.060Z,1.40
2018-08-12T03:06:42.750Z,1.43
2018-08-12T03:09:13.274Z,1.60
2018-08-12T03:11:44.825Z,1.65
2018-08-12T03:14:14.960Z,1.80
2018-08-12T03:16:46.128Z,1.67
2018-08-12T03:19:15.690Z,1.60
2018-08-12T03:21:45.242Z,1.40
2018-08-12T03:24:14.911Z,1.50
2018-08-12T03:26:46.393Z,1.60
2018-08-12T03:29:16.984Z,1.53
2018-08-12T03:31:48.152Z,1.50
2018-08-12T03:34:17.653Z,1.70
2018-08-12T03:36:47.722Z,1.50
2018-08-12T03:39:18.299Z,1.57
2018-08-12T03:41:48.961Z,1.42
2018-08-12T03:44:21.267Z,1.60
2018-08-12T03:46:51.238Z,1.40
2018-08-12T03:49:21.403Z,1.40
2018-08-12T03:51:51.679Z,1.40
2018-08-12T03:54:22.621Z,1.32
2018-08-12T03:56:51.808Z,1.80
2018-08-12T03:59:20.911Z,1.33
2018-08-12T04:01:50.143Z,1.80
2018-08-12T04:04:19.332Z,1.77
2018-08-12T04:06:48.745Z,1.53
2018-08-12T04:09:18.008Z,1.40
2018-08-12T04:11:47.261Z,1.60
2018-08-12T04:14:16.711Z,1.43
2018-08-12T04:16:54.003Z,1.60
2018-08-12T04:19:23.373Z,1.73
2018-08-12T04:21:55.500Z,1.53
2018-08-12T04:24:26.843Z,1.33
2018-08-12T04:26:57.753Z,1.60
2018-08-12T04:29:30.171Z,1.63
2018-08-12T04:32:00.158Z,1.40
2018-08-12T04:34:31.848Z,1.30
2018-08-12T04:37:01.955Z,1.40
2018-08-12T04:39:32.764Z,1.32
2018-08-12T04:42:01.965Z,1.30
2018-08-12T04:44:31.090Z,1.27
2018-08-12T04:47:00.266Z,1.50
2018-08-12T04:49:29.964Z,1.50
2018-08-12T04:51:59.422Z,1.43
2018-08-12T04:54:28.981Z,1.63
2018-08-12T04:56:58.471Z,1.30
2018-08-12T04:59:27.772Z,1.67
2018-08-12T05:01:57.134Z,1.37
2018-08-12T05:04:26.353Z,1.40
2018-08-12T05:06:55.697Z,1.27
2018-08-12T05:09:24.911Z,1.03
2018-08-12T05:11:54.060Z,1.20
2018-08-12T05:14:23.260Z,1.20
2018-08-12T05:16:52.913Z,1.53
2018-08-12T05:19:21.983Z,1.50
2018-08-12T05:21:58.079Z,1.60
2018-08-12T05:24:27.696Z,1.23
2018-08-12T05:26:56.900Z,1.33
2018-08-12T05:29:26.026Z,1.50
2018-08-12T05:31:55.421Z,1.50
2018-08-12T05:34:25.465Z,1.65
2018-08-12T05:36:54.827Z,1.40
2018-08-12T05:39:24.337Z,1.40
2018-08-12T05:41:53.736Z,1.67
2018-08-12T05:44:22.932Z,1.57
2018-08-12T05:46:52.358Z,1.40
2018-08-12T05:49:21.742Z,1.37
2018-08-12T05:51:51.259Z,1.50
2018-08-12T05:54:20.786Z,1.25
2018-08-12T05:56:50.046Z,1.20
2018-08-12T05:59:19.240Z,1.30
2018-08-12T06:01:48.436Z,1.00
2018-08-12T06:04:17.800Z,1.30
2018-08-12T06:06:47.147Z,1.17
2018-08-12T06:09:16.530Z,1.30
2018-08-12T06:11:45.860Z,0.97
2018-08-12T06:14:15.037Z,1.10
2018-08-12T06:16:44.435Z,0.88
2018-08-12T06:19:13.943Z,1.00
2018-08-12T06:21:44.215Z,1.10
2018-08-12T06:24:13.579Z,0.90
2018-08-12T06:26:43.036Z,0.90
2018-08-12T06:29:13.489Z,0.90
2018-08-12T06:31:42.872Z,0.98
2018-08-12T06:34:12.199Z,1.10
2018-08-12T06:36:41.440Z,1.10
2018-08-12T06:39:12.025Z,1.07
2018-08-12T06:41:41.573Z,1.00
2018-08-12T06:44:10.932Z,1.00
2018-08-12T06:46:40.282Z,1.07
2018-08-12T06:49:09.850Z,1.10
2018-08-12T06:51:39.679Z,0.80
2018-08-12T06:54:09.188Z,1.05
2018-08-12T06:56:38.702Z,1.00
2018-08-12T06:59:08.596Z,1.00
2018-08-12T07:01:40.016Z,1.12
2018-08-12T07:04:10.586Z,1.23
2018-08-12T07:06:42.183Z,1.05
2018-08-12T07:09:12.554Z,1.00
2018-08-12T07:11:44.553Z,0.97
2018-08-12T07:14:16.140Z,1.10
2018-08-12T07:16:45.913Z,0.90
2018-08-12T07:19:18.238Z,1.07
2018-08-12T07:21:49.168Z,0.93
2018-08-12T07:24:18.544Z,0.78
2018-08-12T07:26:47.751Z,1.00
2018-08-12T07:29:17.059Z,1.13
2018-08-12T07:31:47.787Z,0.90
2018-08-12T07:34:18.338Z,0.90
2018-08-12T07:36:47.479Z,0.85
2018-08-12T07:39:16.889Z,0.98
2018-08-12T07:41:46.197Z,0.70
2018-08-12T07:44:15.779Z,0.82
2018-08-12T07:46:45.729Z,0.90
2018-08-12T07:49:15.093Z,1.12
2018-08-12T07:51:44.565Z,0.90
2018-08-12T07:54:13.892Z,0.90
2018-08-12T07:56:43.208Z,0.80
2018-08-12T07:59:12.563Z,1.10
2018-08-12T08:01:42.725Z,0.70
2018-08-12T08:04:12.084Z,0.93
2018-08-12T08:06:41.446Z,0.80
2018-08-12T08:09:12.329Z,0.70
2018-08-12T08:11:42.218Z,0.75
2018-08-12T08:14:11.520Z,0.70
2018-08-12T08:16:40.981Z,0.88
2018-08-12T08:19:10.547Z,0.88
2018-08-12T08:21:41.200Z,0.80
2018-08-12T08:24:10.703Z,0.88
2018-08-12T08:26:39.973Z,0.70
2018-08-12T08:29:09.968Z,0.80
2018-08-12T08:31:40.249Z,0.78
2018-08-12T08:34:09.609Z,0.60
2018-08-12T08:36:39.221Z,0.80
2018-08-12T08:39:12.608Z,0.80
2018-08-12T08:41:42.226Z,0.53
2018-08-12T08:44:11.873Z,0.70
2018-08-12T08:46:41.624Z,0.50
2018-08-12T08:49:11.115Z,0.78
2018-08-12T08:51:40.654Z,0.75
2018-08-12T08:54:10.544Z,0.70
2018-08-12T08:56:40.129Z,0.60
2018-08-12T08:59:10.044Z,0.65
2018-08-12T09:01:39.365Z,0.55
2018-08-12T09:04:08.818Z,0.60
2018-08-12T09:06:38.255Z,0.60
2018-08-12T09:09:12.814Z,0.60
2018-08-12T09:11:42.022Z,0.50
2018-08-12T09:14:11.979Z,0.57
2018-08-12T09:16:42.803Z,0.40
2018-08-12T09:19:12.461Z,0.60
2018-08-12T09:21:42.046Z,0.60
2018-08-12T09:24:11.358Z,0.53
2018-08-12T09:26:40.972Z,0.53
2018-08-12T09:29:10.716Z,0.50
2018-08-12T09:31:40.215Z,0.70
2018-08-12T09:34:09.985Z,0.55
2018-08-12T09:36:39.371Z,0.42
2018-08-12T09:39:11.793Z,0.60
2018-08-12T09:41:42.024Z,0.56
2018-08-12T09:44:11.400Z,0.75
2018-08-12T09:46:40.865Z,0.60
2018-08-12T09:49:10.541Z,0.53
2018-08-12T09:51:40.632Z,0.70
2018-08-12T09:54:10.149Z,0.60
2018-08-12T09:56:39.881Z,0.70
2018-08-12T09:59:09.589Z,0.42
2018-08-12T10:01:39.966Z,0.68
2018-08-12T10:04:10.638Z,0.40
2018-08-12T10:06:40.872Z,0.55
2018-08-12T10:09:12.416Z,0.60
2018-08-12T10:11:41.964Z,0.60
2018-08-12T10:14:12.375Z,0.42
2018-08-12T10:16:42.313Z,0.55
2018-08-12T10:19:13.516Z,0.68
2018-08-12T10:21:43.544Z,0.60
2018-08-12T10:24:13.758Z,0.57
2018-08-12T10:26:45.473Z,0.53
2018-08-12T10:29:14.875Z,0.50
2018-08-12T10:31:44.358Z,0.70
2018-08-12T10:34:13.788Z,0.75
2018-08-12T10:36:46.132Z,0.70
2018-08-12T10:39:16.889Z,0.53
2018-08-12T10:44:26.281Z,0.60
2018-08-12T10:46:55.543Z,0.70
2018-08-12T10:49:24.991Z,0.57
2018-08-12T10:51:54.762Z,0.60
2018-08-12T10:54:24.436Z,0.65
2018-08-12T10:56:54.100Z,0.53
2018-08-12T10:59:23.851Z,0.60
2018-08-12T11:01:53.642Z,0.90
2018-08-12T11:04:22.886Z,0.60
2018-08-12T11:06:52.380Z,0.80
2018-08-12T11:09:21.685Z,0.70
2018-08-12T11:11:52.124Z,0.62
2018-08-12T11:14:21.529Z,0.72
2018-08-12T11:16:52.510Z,0.70
2018-08-12T11:19:21.700Z,0.70
2018-08-12T11:21:50.870Z,0.70
2018-08-12T11:24:20.024Z,0.70
2018-08-12T11:26:49.358Z,0.80
2018-08-12T11:29:18.635Z,0.60
2018-08-12T11:31:48.604Z,0.50
2018-08-12T11:34:18.055Z,0.50
2018-08-12T11:36:47.680Z,0.80
2018-08-12T11:39:18.799Z,0.62
2018-08-12T11:41:48.434Z,0.70
2018-08-12T11:44:17.963Z,0.60
2018-08-12T11:46:47.439Z,0.70
2018-08-12T11:49:16.866Z,1.10
2018-08-12T11:51:46.442Z,0.85
2018-08-12T11:54:15.796Z,0.80
2018-08-12T11:56:45.310Z,0.70
2018-08-12T11:59:14.775Z,1.17
2018-08-12T12:01:44.020Z,0.90
2018-08-12T12:04:13.414Z,1.02
2018-08-12T12:06:42.781Z,0.70
2018-08-12T12:09:12.294Z,0.70
2018-08-12T12:11:42.515Z,0.80
2018-08-12T12:14:12.130Z,1.30
2018-08-12T12:16:42.044Z,0.82
2018-08-12T12:19:11.501Z,0.70
2018-08-12T12:21:41.283Z,0.80
2018-08-12T12:24:10.973Z,0.80
2018-08-12T12:26:40.757Z,0.90
2018-08-12T12:29:10.554Z,0.80
2018-08-12T12:31:39.972Z,0.88
2018-08-12T12:34:09.971Z,0.75
2018-08-12T12:36:40.447Z,0.90
2018-08-12T12:39:11.468Z,0.80
2018-08-12T12:41:41.566Z,0.70
2018-08-12T12:44:12.114Z,0.80
2018-08-12T12:46:41.780Z,0.95
2018-08-12T12:49:11.475Z,0.98
2018-08-12T12:51:42.438Z,0.93
2018-08-12T12:54:11.974Z,0.70
2018-08-12T12:56:41.366Z,0.90
2018-08-12T12:59:11.374Z,0.70
2018-08-12T13:01:40.972Z,1.02
2018-08-12T13:04:10.302Z,0.82
2018-08-12T13:06:39.832Z,1.00
2018-08-12T13:09:12.609Z,1.00
2018-08-12T13:11:42.521Z,0.90
2018-08-12T13:14:12.098Z,0.83
2018-08-12T13:16:44.205Z,1.44
2018-08-12T13:19:13.975Z,1.10
2018-08-12T13:21:43.094Z,1.10
2018-08-12T13:24:12.541Z,1.00
2018-08-12T13:26:41.898Z,0.90
2018-08-12T13:29:12.038Z,1.00
2018-08-12T13:31:41.393Z,1.30
2018-08-12T13:34:10.744Z,1.30
2018-08-12T13:36:40.118Z,1.20
2018-08-12T13:39:11.849Z,1.23
2018-08-12T13:41:41.222Z,1.15
2018-08-12T13:44:11.066Z,1.17
2018-08-12T13:46:40.611Z,1.10
2018-08-12T13:49:11.094Z,1.30
2018-08-12T13:51:40.536Z,1.17
2018-08-12T13:54:09.902Z,1.27
2018-08-12T13:56:40.999Z,1.17
2018-08-12T13:59:12.226Z,1.13
2018-08-12T14:01:41.840Z,1.23
2018-08-12T14:04:11.297Z,1.50
2018-08-12T14:06:41.805Z,1.30
2018-08-12T14:09:11.735Z,1.02
2018-08-12T14:11:41.197Z,1.15
2018-08-12T14:14:10.627Z,1.37
2018-08-12T14:16:40.183Z,1.30
2018-08-12T14:19:09.676Z,1.30
2018-08-12T14:21:38.858Z,1.20
2018-08-12T14:24:08.481Z,1.25
2018-08-12T14:26:37.733Z,1.00
2018-08-12T14:29:06.940Z,1.15
2018-08-12T14:31:36.118Z,1.20
2018-08-12T14:34:05.554Z,1.22
2018-08-12T14:36:35.133Z,1.45
2018-08-12T14:39:06.187Z,1.42
2018-08-12T14:41:35.423Z,1.15
2018-08-12T14:44:04.766Z,1.27
2018-08-12T14:46:34.082Z,1.50
2018-08-12T14:49:03.600Z,1.40
2018-08-12T14:51:32.855Z,1.30
2018-08-12T14:54:01.955Z,1.30
2018-08-12T14:56:31.156Z,1.42
2018-08-12T14:59:00.334Z,1.37
2018-08-12T15:01:29.800Z,1.62
2018-08-12T15:03:59.015Z,1.37
2018-08-12T15:06:28.268Z,1.60
2018-08-12T15:08:57.389Z,1.60
2018-08-12T15:11:26.763Z,2.30
2018-08-12T15:13:55.996Z,1.90
2018-08-12T15:16:25.244Z,1.98
2018-08-12T15:18:54.648Z,1.60
2018-08-12T15:21:23.921Z,2.10
2018-08-12T15:23:53.124Z,2.00
2018-08-12T15:26:22.319Z,1.60
2018-08-12T15:28:51.542Z,1.50
2018-08-12T15:31:20.791Z,2.04
2018-08-12T15:33:50.088Z,1.50
2018-08-12T15:36:19.650Z,1.27
2018-08-12T15:38:48.967Z,1.40
2018-08-12T15:41:18.175Z,2.37
2018-08-12T15:43:47.343Z,1.67
2018-08-12T15:46:16.689Z,1.62
2018-08-12T15:48:46.116Z,2.83
2018-08-12T15:51:15.446Z,2.70
2018-08-12T15:53:44.677Z,3.45
2018-08-12T15:56:13.923Z,2.60
2018-08-12T15:58:43.322Z,2.77
2018-08-12T16:01:12.461Z,1.72
2018-08-12T16:03:42.233Z,1.60
2018-08-12T16:06:11.452Z,1.50
2018-08-12T16:08:40.777Z,1.50
2018-08-12T16:11:10.221Z,1.40
2018-08-12T16:13:39.683Z,1.42
2018-08-12T16:16:09.110Z,1.23
2018-08-12T16:18:38.319Z,1.40
2018-08-12T16:21:07.872Z,1.10
2018-08-12T16:23:37.099Z,1.32
2018-08-12T16:26:06.388Z,1.50
2018-08-12T16:28:35.667Z,1.47
2018-08-12T16:31:04.896Z,1.97
2018-08-12T16:33:34.014Z,1.60
2018-08-12T16:36:03.192Z,1.80
2018-08-12T16:38:32.413Z,1.60
2018-08-12T16:41:01.623Z,1.50
2018-08-12T16:43:31.564Z,1.67
2018-08-12T16:46:00.716Z,2.00
2018-08-12T16:48:30.370Z,1.65
2018-08-12T16:50:59.644Z,1.65
2018-08-12T16:53:28.835Z,1.50
2018-08-12T16:55:58.048Z,1.57
2018-08-12T16:58:27.160Z,1.70
2018-08-12T17:00:56.356Z,1.80
2018-08-12T17:03:26.512Z,1.75
2018-08-12T17:05:55.921Z,1.35
2018-08-12T17:08:25.083Z,1.65
2018-08-12T17:10:54.309Z,1.40
2018-08-12T17:13:23.459Z,1.77
2018-08-12T17:15:52.727Z,1.72
2018-08-12T17:18:21.983Z,1.65
2018-08-12T17:20:51.206Z,1.50
2018-08-12T17:23:20.468Z,1.65
2018-08-12T17:25:49.781Z,1.40
2018-08-12T17:28:18.775Z,1.40
2018-08-12T17:30:47.941Z,1.87
2018-08-12T17:33:17.164Z,1.80
2018-08-12T17:35:46.414Z,1.32
2018-08-12T17:38:15.656Z,1.50
2018-08-12T17:40:45.019Z,1.53
2018-08-12T17:43:14.224Z,1.67
2018-08-12T17:45:43.360Z,1.60
2018-08-12T17:48:13.117Z,1.57
2018-08-12T17:50:42.232Z,1.60
2018-08-12T17:53:11.927Z,1.87
2018-08-12T17:55:41.456Z,1.80
2018-08-12T17:58:11.113Z,1.60
2018-08-12T18:00:41.900Z,2.00
2018-08-12T18:03:12.086Z,1.70
2018-08-12T18:05:41.264Z,1.43
2018-08-12T18:08:10.834Z,1.50
2018-08-12T18:10:40.154Z,1.40
2018-08-12T18:13:10.362Z,1.60
2018-08-12T18:15:40.221Z,1.23
2018-08-12T18:18:10.231Z,1.37
2018-08-12T18:20:40.174Z,1.40
2018-08-12T18:23:10.105Z,2.05
2018-08-12T18:25:40.376Z,1.90
2018-08-12T18:28:10.250Z,1.60
2018-08-12T18:30:39.813Z,1.67
2018-08-12T18:33:09.947Z,1.53
2018-08-12T18:35:39.273Z,1.53
2018-08-12T18:38:08.579Z,1.70
2018-08-12T18:40:38.766Z,1.57
2018-08-12T18:43:08.125Z,1.65
2018-08-12T18:45:37.936Z,1.80
2018-08-12T18:48:07.370Z,1.13
2018-08-12T18:50:36.609Z,1.50
2018-08-12T18:53:05.847Z,1.50
2018-08-12T18:55:35.158Z,1.70
2018-08-12T18:58:05.304Z,1.60
2018-08-12T19:00:34.696Z,1.47
2018-08-12T19:03:04.061Z,1.50
2018-08-12T19:05:33.268Z,1.52
2018-08-12T19:08:02.589Z,1.57
2018-08-12T19:10:31.799Z,1.73
2018-08-12T19:13:01.001Z,1.40
2018-08-12T19:15:30.317Z,1.90
2018-08-12T19:18:01.416Z,1.23
2018-08-12T19:20:30.588Z,1.40
2018-08-12T19:23:04.031Z,1.60
2018-08-12T19:25:33.651Z,1.50
2018-08-12T19:28:02.814Z,1.42
2018-08-12T19:30:32.010Z,1.60
2018-08-12T19:33:01.191Z,1.70
2018-08-12T19:35:30.382Z,1.50
2018-08-12T19:38:03.450Z,1.40
2018-08-12T19:40:32.803Z,1.60
2018-08-12T19:43:02.227Z,1.70
2018-08-12T19:45:31.469Z,1.50
2018-08-12T19:48:00.801Z,1.52
2018-08-12T19:50:30.147Z,1.77
2018-08-12T19:52:59.462Z,1.67
2018-08-12T19:55:28.831Z,1.87
2018-08-12T19:57:58.055Z,1.42
2018-08-12T20:00:27.273Z,1.50
2018-08-12T20:02:56.352Z,1.50
2018-08-12T20:05:25.627Z,1.57
2018-08-12T20:07:54.852Z,1.53
2018-08-12T20:10:24.030Z,1.52
2018-08-12T20:12:53.105Z,1.40
2018-08-12T20:15:22.352Z,1.50
2018-08-12T20:17:51.423Z,1.47
2018-08-12T20:20:20.524Z,1.57
2018-08-12T20:22:49.675Z,1.27
2018-08-12T20:25:19.118Z,1.50
2018-08-12T20:27:48.240Z,1.80
2018-08-12T20:30:17.341Z,1.70
2018-08-12T20:32:46.494Z,1.77
2018-08-12T20:35:15.940Z,1.70
2018-08-12T20:37:45.053Z,1.50
2018-08-12T20:40:14.257Z,1.67
2018-08-12T20:42:43.374Z,1.72
2018-08-12T20:45:12.586Z,1.82
2018-08-12T20:47:41.892Z,2.00
2018-08-12T20:50:11.744Z,1.42
2018-08-12T20:52:41.766Z,1.73
2018-08-12T20:55:12.076Z,1.50
2018-08-12T20:57:41.198Z,1.50
2018-08-12T21:00:11.345Z,1.60
2018-08-12T21:02:40.548Z,1.57
2018-08-12T21:05:10.764Z,1.40
2018-08-12T21:07:41.300Z,1.53
2018-08-12T21:10:11.499Z,1.30
2018-08-12T21:12:41.476Z,1.40
2018-08-12T21:15:10.647Z,1.12
2018-08-12T21:17:39.736Z,1.60
2018-08-12T21:20:08.866Z,1.50
2018-08-12T21:22:38.460Z,1.23
2018-08-12T21:25:08.222Z,1.40
2018-08-12T21:27:37.833Z,1.50
2018-08-12T21:30:07.160Z,1.50
2018-08-12T21:32:36.206Z,1.50
2018-08-12T21:35:05.332Z,1.37
2018-08-12T21:37:34.878Z,1.10
2018-08-12T21:40:04.186Z,1.20
2018-08-12T21:42:33.279Z,1.32
2018-08-12T21:45:02.421Z,1.60
2018-08-12T21:47:31.477Z,1.57
2018-08-12T21:50:00.941Z,1.35
2018-08-12T21:52:31.313Z,1.50
2018-08-12T21:55:01.236Z,1.72
2018-08-12T21:57:30.509Z,1.40
2018-08-12T21:59:59.663Z,1.53
2018-08-12T22:02:28.922Z,1.50
2018-08-12T22:04:58.249Z,1.80
2018-08-12T22:07:27.352Z,1.60
2018-08-12T22:09:56.546Z,1.70
2018-08-12T22:12:25.687Z,1.50
2018-08-12T22:14:54.856Z,1.50
2018-08-12T22:17:23.967Z,1.22
2018-08-12T22:19:53.098Z,1.50
2018-08-12T22:22:22.224Z,1.87
2018-08-12T22:24:51.391Z,1.60
2018-08-12T22:27:20.536Z,1.53
2018-08-12T22:29:49.720Z,1.82
2018-08-12T22:32:18.801Z,1.20
2018-08-12T22:34:47.853Z,1.40
2018-08-12T22:37:16.994Z,1.87
2018-08-12T22:39:48.968Z,1.40
2018-08-12T22:42:18.075Z,1.47
2018-08-12T22:44:47.132Z,1.60
2018-08-12T22:47:16.235Z,2.00
2018-08-12T22:49:45.452Z,1.50
2018-08-12T22:52:14.616Z,1.70
2018-08-12T22:54:43.771Z,1.60
2018-08-12T22:57:12.976Z,1.50
2018-08-12T22:59:42.181Z,1.87
2018-08-12T23:02:11.485Z,1.50
2018-08-12T23:04:40.649Z,1.60
2018-08-12T23:07:10.475Z,1.40
2018-08-12T23:09:39.789Z,1.63
2018-08-12T23:12:08.944Z,1.30
2018-08-12T23:14:38.094Z,1.90
2018-08-12T23:17:07.140Z,1.40
2018-08-12T23:19:36.246Z,1.50
2018-08-12T23:22:05.361Z,1.77
2018-08-12T23:24:34.448Z,1.57
2018-08-12T23:27:03.541Z,1.80
2018-08-12T23:29:32.606Z,2.10
2018-08-12T23:32:01.735Z,1.93
2018-08-12T23:34:30.778Z,1.60
2018-08-12T23:36:59.903Z,1.60
2018-08-12T23:39:28.988Z,1.50
2018-08-12T23:41:58.027Z,1.70
2018-08-12T23:44:27.214Z,2.07
2018-08-12T23:46:56.469Z,1.70
2018-08-12T23:49:25.512Z,1.83
2018-08-12T23:51:54.737Z,1.70
2018-08-12T23:54:23.917Z,1.53
2018-08-12T23:56:52.965Z,1.60
2018-08-12T23:59:22.052Z,1.80
